sensor_id;sensor_type;location;lat;lon;timestamp;temperature;humidity
19397;DHT22;9834;48.076;11.878;2024-01-25T00:00:02;8.10;99.90
19397;DHT22;9834;48.076;11.878;2024-01-25T00:02:29;8.10;99.90
19397;DHT22;9834;48.076;11.878;2024-01-25T00:04:56;8.00;99.90
19397;DHT22;9834;48.076;11.878;2024-01-25T00:07:25;8.00;99.90
19397;DHT22;9834;48.076;11.878;2024-01-25T00:09:53;8.00;99.90
19397;DHT22;9834;48.076;11.878;2024-01-25T00:12:22;7.90;99.90
19397;DHT22;9834;48.076;11.878;2024-01-25T00:14:53;8.00;99.90
19397;DHT22;9834;48.076;11.878;2024-01-25T00:17:23;7.90;99.90
19397;DHT22;9834;48.076;11.878;2024-01-25T00:19:56;7.90;99.90
19397;DHT22;9834;48.076;11.878;2024-01-25T00:22:28;8.00;99.90
19397;DHT22;9834;48.076;11.878;2024-01-25T00:24:55;8.00;99.90
19397;DHT22;9834;48.076;11.878;2024-01-25T00:27:22;8.00;99.90
19397;DHT22;9834;48.076;11.878;2024-01-25T00:29:51;8.00;99.90
19397;DHT22;9834;48.076;11.878;2024-01-25T00:32:19;7.90;99.90
19397;DHT22;9834;48.076;11.878;2024-01-25T00:34:46;7.90;99.90
19397;DHT22;9834;48.076;11.878;2024-01-25T00:37:17;7.80;99.90
19397;DHT22;9834;48.076;11.878;2024-01-25T00:39:47;7.80;99.90
19397;DHT22;9834;48.076;11.878;2024-01-25T00:42:17;7.80;99.90
19397;DHT22;9834;48.076;11.878;2024-01-25T00:44:46;7.80;99.90
19397;DHT22;9834;48.076;11.878;2024-01-25T00:47:13;7.80;99.90
19397;DHT22;9834;48.076;11.878;2024-01-25T00:49:42;7.80;99.90
19397;DHT22;9834;48.076;11.878;2024-01-25T00:52:11;7.70;99.90
19397;DHT22;9834;48.076;11.878;2024-01-25T00:54:39;7.70;99.90
19397;DHT22;9834;48.076;11.878;2024-01-25T00:57:11;7.70;99.90
19397;DHT22;9834;48.076;11.878;2024-01-25T00:59:41;7.70;99.90
19397;DHT22;9834;48.076;11.878;2024-01-25T01:02:12;7.70;99.90
19397;DHT22;9834;48.076;11.878;2024-01-25T01:04:40;7.70;99.90
19397;DHT22;9834;48.076;11.878;2024-01-25T01:07:10;7.80;99.90
19397;DHT22;9834;48.076;11.878;2024-01-25T01:09:37;7.80;99.90
19397;DHT22;9834;48.076;11.878;2024-01-25T01:12:04;7.80;99.90
19397;DHT22;9834;48.076;11.878;2024-01-25T01:14:34;7.80;99.90
19397;DHT22;9834;48.076;11.878;2024-01-25T01:17:02;7.80;99.90
19397;DHT22;9834;48.076;11.878;2024-01-25T01:19:29;7.90;99.90
19397;DHT22;9834;48.076;11.878;2024-01-25T01:21:58;7.90;99.90
19397;DHT22;9834;48.076;11.878;2024-01-25T01:24:25;7.90;99.90
19397;DHT22;9834;48.076;11.878;2024-01-25T01:26:56;7.90;99.90
19397;DHT22;9834;48.076;11.878;2024-01-25T01:29:26;7.90;99.90
19397;DHT22;9834;48.076;11.878;2024-01-25T01:31:55;7.90;99.90
19397;DHT22;9834;48.076;11.878;2024-01-25T01:34:23;8.00;99.90
19397;DHT22;9834;48.076;11.878;2024-01-25T01:36:51;7.90;99.90
19397;DHT22;9834;48.076;11.878;2024-01-25T01:39:19;8.00;99.90
19397;DHT22;9834;48.076;11.878;2024-01-25T01:41:47;8.00;99.90
19397;DHT22;9834;48.076;11.878;2024-01-25T01:44:15;8.00;99.90
19397;DHT22;9834;48.076;11.878;2024-01-25T01:46:44;8.00;99.90
19397;DHT22;9834;48.076;11.878;2024-01-25T01:49:14;8.00;99.90
19397;DHT22;9834;48.076;11.878;2024-01-25T01:51:42;8.00;99.90
19397;DHT22;9834;48.076;11.878;2024-01-25T01:54:10;8.00;99.90
19397;DHT22;9834;48.076;11.878;2024-01-25T01:56:40;8.00;99.90
19397;DHT22;9834;48.076;11.878;2024-01-25T01:59:09;7.90;99.90
19397;DHT22;9834;48.076;11.878;2024-01-25T02:01:37;7.90;99.90
19397;DHT22;9834;48.076;11.878;2024-01-25T02:04:06;8.00;99.90
19397;DHT22;9834;48.076;11.878;2024-01-25T02:06:45;8.00;99.90
19397;DHT22;9834;48.076;11.878;2024-01-25T02:09:12;7.90;99.90
19397;DHT22;9834;48.076;11.878;2024-01-25T02:11:39;7.90;99.90
19397;DHT22;9834;48.076;11.878;2024-01-25T02:14:07;7.90;99.90
19397;DHT22;9834;48.076;11.878;2024-01-25T02:16:36;8.00;99.90
19397;DHT22;9834;48.076;11.878;2024-01-25T02:19:05;7.90;99.90
19397;DHT22;9834;48.076;11.878;2024-01-25T02:21:33;7.80;99.90
19397;DHT22;9834;48.076;11.878;2024-01-25T02:24:05;7.80;99.90
19397;DHT22;9834;48.076;11.878;2024-01-25T02:26:33;7.80;99.90
19397;DHT22;9834;48.076;11.878;2024-01-25T02:29:00;7.80;99.90
19397;DHT22;9834;48.076;11.878;2024-01-25T02:31:30;7.70;99.90
19397;DHT22;9834;48.076;11.878;2024-01-25T02:33:59;7.70;99.90
19397;DHT22;9834;48.076;11.878;2024-01-25T02:36:26;7.60;99.90
19397;DHT22;9834;48.076;11.878;2024-01-25T02:38:53;7.60;99.90
19397;DHT22;9834;48.076;11.878;2024-01-25T02:41:22;7.60;99.90
19397;DHT22;9834;48.076;11.878;2024-01-25T02:43:50;7.60;99.90
19397;DHT22;9834;48.076;11.878;2024-01-25T02:46:17;7.70;99.90
19397;DHT22;9834;48.076;11.878;2024-01-25T02:48:43;7.70;99.90
19397;DHT22;9834;48.076;11.878;2024-01-25T02:51:16;7.70;99.90
19397;DHT22;9834;48.076;11.878;2024-01-25T02:53:43;7.70;99.90
19397;DHT22;9834;48.076;11.878;2024-01-25T02:56:10;7.70;99.90
19397;DHT22;9834;48.076;11.878;2024-01-25T02:58:40;7.80;99.90
19397;DHT22;9834;48.076;11.878;2024-01-25T03:01:07;7.80;99.90
19397;DHT22;9834;48.076;11.878;2024-01-25T03:03:34;7.70;99.90
19397;DHT22;9834;48.076;11.878;2024-01-25T03:06:02;7.80;99.90
19397;DHT22;9834;48.076;11.878;2024-01-25T03:08:31;7.70;99.90
19397;DHT22;9834;48.076;11.878;2024-01-25T03:10:58;7.70;99.90
19397;DHT22;9834;48.076;11.878;2024-01-25T03:13:29;7.70;99.90
19397;DHT22;9834;48.076;11.878;2024-01-25T03:16:03;7.70;99.90
19397;DHT22;9834;48.076;11.878;2024-01-25T03:18:38;7.80;99.90
19397;DHT22;9834;48.076;11.878;2024-01-25T03:21:05;7.80;99.90
19397;DHT22;9834;48.076;11.878;2024-01-25T03:23:34;8.00;99.90
19397;DHT22;9834;48.076;11.878;2024-01-25T03:26:02;7.80;99.90
19397;DHT22;9834;48.076;11.878;2024-01-25T03:28:33;7.90;99.90
19397;DHT22;9834;48.076;11.878;2024-01-25T03:31:06;7.90;99.90
19397;DHT22;9834;48.076;11.878;2024-01-25T03:33:34;7.80;99.90
19397;DHT22;9834;48.076;11.878;2024-01-25T03:36:04;7.80;99.90
19397;DHT22;9834;48.076;11.878;2024-01-25T03:38:32;7.80;99.90
19397;DHT22;9834;48.076;11.878;2024-01-25T03:41:05;7.80;99.90
19397;DHT22;9834;48.076;11.878;2024-01-25T03:43:35;7.90;99.90
19397;DHT22;9834;48.076;11.878;2024-01-25T03:46:03;7.80;99.90
19397;DHT22;9834;48.076;11.878;2024-01-25T03:48:34;7.90;99.90
19397;DHT22;9834;48.076;11.878;2024-01-25T03:51:03;7.80;99.90
19397;DHT22;9834;48.076;11.878;2024-01-25T03:53:35;7.90;99.90
19397;DHT22;9834;48.076;11.878;2024-01-25T03:56:11;7.80;99.90
19397;DHT22;9834;48.076;11.878;2024-01-25T03:58:50;7.80;99.90
19397;DHT22;9834;48.076;11.878;2024-01-25T04:01:18;7.80;99.90
19397;DHT22;9834;48.076;11.878;2024-01-25T04:03:55;7.80;99.90
19397;DHT22;9834;48.076;11.878;2024-01-25T04:06:22;7.80;99.90
19397;DHT22;9834;48.076;11.878;2024-01-25T04:08:49;7.80;99.90
19397;DHT22;9834;48.076;11.878;2024-01-25T04:11:18;7.80;99.90
19397;DHT22;9834;48.076;11.878;2024-01-25T04:13:48;7.80;99.90
19397;DHT22;9834;48.076;11.878;2024-01-25T04:16:16;7.80;99.90
19397;DHT22;9834;48.076;11.878;2024-01-25T04:18:44;7.80;99.90
19397;DHT22;9834;48.076;11.878;2024-01-25T04:21:14;7.80;99.90
19397;DHT22;9834;48.076;11.878;2024-01-25T04:23:44;7.70;99.90
19397;DHT22;9834;48.076;11.878;2024-01-25T04:26:12;7.70;99.90
19397;DHT22;9834;48.076;11.878;2024-01-25T04:28:43;7.70;99.90
19397;DHT22;9834;48.076;11.878;2024-01-25T04:31:10;7.80;99.90
19397;DHT22;9834;48.076;11.878;2024-01-25T04:33:38;7.70;99.90
19397;DHT22;9834;48.076;11.878;2024-01-25T04:36:07;7.70;99.90
19397;DHT22;9834;48.076;11.878;2024-01-25T04:38:36;7.70;99.90
19397;DHT22;9834;48.076;11.878;2024-01-25T04:41:04;7.70;99.90
19397;DHT22;9834;48.076;11.878;2024-01-25T04:43:35;7.70;99.90
19397;DHT22;9834;48.076;11.878;2024-01-25T04:46:06;7.70;99.90
19397;DHT22;9834;48.076;11.878;2024-01-25T04:48:37;7.60;99.90
19397;DHT22;9834;48.076;11.878;2024-01-25T04:51:05;7.60;99.90
19397;DHT22;9834;48.076;11.878;2024-01-25T04:53:39;7.70;99.90
19397;DHT22;9834;48.076;11.878;2024-01-25T04:56:10;8.00;99.90
19397;DHT22;9834;48.076;11.878;2024-01-25T04:58:37;7.70;99.90
19397;DHT22;9834;48.076;11.878;2024-01-25T05:01:07;7.60;99.90
19397;DHT22;9834;48.076;11.878;2024-01-25T05:03:34;7.60;99.90
19397;DHT22;9834;48.076;11.878;2024-01-25T05:06:05;7.70;99.90
19397;DHT22;9834;48.076;11.878;2024-01-25T05:08:33;7.60;99.90
19397;DHT22;9834;48.076;11.878;2024-01-25T05:11:05;7.60;99.90
19397;DHT22;9834;48.076;11.878;2024-01-25T05:13:34;7.70;99.90
19397;DHT22;9834;48.076;11.878;2024-01-25T05:16:06;8.30;99.90
19397;DHT22;9834;48.076;11.878;2024-01-25T05:18:38;7.60;99.90
19397;DHT22;9834;48.076;11.878;2024-01-25T05:21:06;7.60;99.90
19397;DHT22;9834;48.076;11.878;2024-01-25T05:23:34;7.50;99.90
19397;DHT22;9834;48.076;11.878;2024-01-25T05:26:02;7.40;99.90
19397;DHT22;9834;48.076;11.878;2024-01-25T05:28:35;7.40;99.90
19397;DHT22;9834;48.076;11.878;2024-01-25T05:31:34;8.20;99.90
19397;DHT22;9834;48.076;11.878;2024-01-25T05:41:52;7.50;99.90
19397;DHT22;9834;48.076;11.878;2024-01-25T05:54:45;7.10;99.90
19397;DHT22;9834;48.076;11.878;2024-01-25T05:57:16;7.60;99.90
19397;DHT22;9834;48.076;11.878;2024-01-25T06:00:04;7.80;99.90
19397;DHT22;9834;48.076;11.878;2024-01-25T06:02:42;7.60;99.90
19397;DHT22;9834;48.076;11.878;2024-01-25T06:05:17;7.60;99.90
19397;DHT22;9834;48.076;11.878;2024-01-25T06:07:52;7.50;99.90
19397;DHT22;9834;48.076;11.878;2024-01-25T06:10:21;7.50;99.90
19397;DHT22;9834;48.076;11.878;2024-01-25T06:12:52;7.60;99.90
19397;DHT22;9834;48.076;11.878;2024-01-25T06:15:20;7.80;99.90
19397;DHT22;9834;48.076;11.878;2024-01-25T06:17:49;7.60;99.90
19397;DHT22;9834;48.076;11.878;2024-01-25T06:20:20;7.60;99.90
19397;DHT22;9834;48.076;11.878;2024-01-25T06:22:49;7.60;99.90
19397;DHT22;9834;48.076;11.878;2024-01-25T06:25:16;7.60;99.90
19397;DHT22;9834;48.076;11.878;2024-01-25T06:28:03;7.60;99.90
19397;DHT22;9834;48.076;11.878;2024-01-25T06:30:34;7.60;99.90
19397;DHT22;9834;48.076;11.878;2024-01-25T06:33:03;7.60;99.90
19397;DHT22;9834;48.076;11.878;2024-01-25T06:35:32;7.60;99.90
19397;DHT22;9834;48.076;11.878;2024-01-25T06:38:18;7.60;99.90
19397;DHT22;9834;48.076;11.878;2024-01-25T06:40:47;7.60;99.90
19397;DHT22;9834;48.076;11.878;2024-01-25T06:43:20;7.50;99.90
19397;DHT22;9834;48.076;11.878;2024-01-25T06:45:49;7.50;99.90
19397;DHT22;9834;48.076;11.878;2024-01-25T06:48:18;7.50;99.90
19397;DHT22;9834;48.076;11.878;2024-01-25T06:50:50;7.50;99.90
19397;DHT22;9834;48.076;11.878;2024-01-25T06:53:20;7.40;99.90
19397;DHT22;9834;48.076;11.878;2024-01-25T06:55:49;7.40;99.90
19397;DHT22;9834;48.076;11.878;2024-01-25T06:58:19;7.40;99.90
19397;DHT22;9834;48.076;11.878;2024-01-25T07:00:47;7.50;99.90
19397;DHT22;9834;48.076;11.878;2024-01-25T07:03:27;7.40;99.90
19397;DHT22;9834;48.076;11.878;2024-01-25T07:05:55;7.30;99.90
19397;DHT22;9834;48.076;11.878;2024-01-25T07:08:22;7.30;99.90
19397;DHT22;9834;48.076;11.878;2024-01-25T07:10:49;7.20;99.90
19397;DHT22;9834;48.076;11.878;2024-01-25T07:13:16;7.20;99.90
19397;DHT22;9834;48.076;11.878;2024-01-25T07:15:52;7.10;99.90
19397;DHT22;9834;48.076;11.878;2024-01-25T07:18:22;7.10;99.90
19397;DHT22;9834;48.076;11.878;2024-01-25T07:21:04;7.00;99.90
19397;DHT22;9834;48.076;11.878;2024-01-25T07:23:33;7.00;99.90
19397;DHT22;9834;48.076;11.878;2024-01-25T07:26:01;6.90;99.90
19397;DHT22;9834;48.076;11.878;2024-01-25T07:28:28;7.00;99.90
19397;DHT22;9834;48.076;11.878;2024-01-25T07:31:02;7.20;99.90
19397;DHT22;9834;48.076;11.878;2024-01-25T07:33:43;7.10;99.90
19397;DHT22;9834;48.076;11.878;2024-01-25T07:36:14;7.20;99.90
19397;DHT22;9834;48.076;11.878;2024-01-25T07:38:44;7.50;99.90
19397;DHT22;9834;48.076;11.878;2024-01-25T07:41:16;7.20;99.90
19397;DHT22;9834;48.076;11.878;2024-01-25T07:43:43;7.30;99.90
19397;DHT22;9834;48.076;11.878;2024-01-25T07:46:54;7.30;99.90
19397;DHT22;9834;48.076;11.878;2024-01-25T07:49:25;7.30;99.90
19397;DHT22;9834;48.076;11.878;2024-01-25T07:51:56;7.40;99.90
19397;DHT22;9834;48.076;11.878;2024-01-25T07:54:28;7.40;99.90
19397;DHT22;9834;48.076;11.878;2024-01-25T07:56:58;7.40;99.90
19397;DHT22;9834;48.076;11.878;2024-01-25T07:59:26;7.60;99.90
19397;DHT22;9834;48.076;11.878;2024-01-25T08:01:57;7.50;99.90
19397;DHT22;9834;48.076;11.878;2024-01-25T08:04:45;7.50;99.90
19397;DHT22;9834;48.076;11.878;2024-01-25T08:07:16;7.20;99.90
19397;DHT22;9834;48.076;11.878;2024-01-25T08:09:44;7.20;99.90
19397;DHT22;9834;48.076;11.878;2024-01-25T08:12:21;7.70;99.90
19397;DHT22;9834;48.076;11.878;2024-01-25T08:14:49;7.70;99.90
19397;DHT22;9834;48.076;11.878;2024-01-25T08:17:18;7.70;99.90
19397;DHT22;9834;48.076;11.878;2024-01-25T08:19:47;7.70;99.90
19397;DHT22;9834;48.076;11.878;2024-01-25T08:22:16;7.60;99.90
19397;DHT22;9834;48.076;11.878;2024-01-25T08:24:47;7.60;99.90
19397;DHT22;9834;48.076;11.878;2024-01-25T08:27:17;7.60;99.90
19397;DHT22;9834;48.076;11.878;2024-01-25T08:29:45;7.80;99.90
19397;DHT22;9834;48.076;11.878;2024-01-25T08:32:11;7.40;99.90
19397;DHT22;9834;48.076;11.878;2024-01-25T08:34:42;7.30;99.90
19397;DHT22;9834;48.076;11.878;2024-01-25T08:37:09;7.70;99.90
19397;DHT22;9834;48.076;11.878;2024-01-25T08:39:40;7.40;99.90
19397;DHT22;9834;48.076;11.878;2024-01-25T08:42:11;7.40;99.90
19397;DHT22;9834;48.076;11.878;2024-01-25T08:44:39;7.50;99.90
19397;DHT22;9834;48.076;11.878;2024-01-25T08:47:13;7.60;99.90
19397;DHT22;9834;48.076;11.878;2024-01-25T08:49:49;7.60;99.90
19397;DHT22;9834;48.076;11.878;2024-01-25T08:52:16;8.10;99.90
19397;DHT22;9834;48.076;11.878;2024-01-25T08:54:49;7.90;99.90
19397;DHT22;9834;48.076;11.878;2024-01-25T08:57:18;8.00;99.90
19397;DHT22;9834;48.076;11.878;2024-01-25T08:59:47;8.30;99.90
19397;DHT22;9834;48.076;11.878;2024-01-25T09:02:17;8.40;99.90
19397;DHT22;9834;48.076;11.878;2024-01-25T09:04:59;8.30;99.90
19397;DHT22;9834;48.076;11.878;2024-01-25T09:07:33;8.50;99.90
19397;DHT22;9834;48.076;11.878;2024-01-25T09:10:00;8.10;99.90
19397;DHT22;9834;48.076;11.878;2024-01-25T09:12:35;8.20;99.90
19397;DHT22;9834;48.076;11.878;2024-01-25T09:15:06;8.20;99.90
19397;DHT22;9834;48.076;11.878;2024-01-25T09:17:37;8.20;99.90
19397;DHT22;9834;48.076;11.878;2024-01-25T09:20:10;8.30;99.90
19397;DHT22;9834;48.076;11.878;2024-01-25T09:22:52;8.40;99.90
19397;DHT22;9834;48.076;11.878;2024-01-25T09:25:41;8.60;99.90
19397;DHT22;9834;48.076;11.878;2024-01-25T09:28:10;8.50;99.90
19397;DHT22;9834;48.076;11.878;2024-01-25T09:30:41;8.50;99.90
19397;DHT22;9834;48.076;11.878;2024-01-25T09:33:11;8.50;99.90
19397;DHT22;9834;48.076;11.878;2024-01-25T09:35:42;8.60;99.90
19397;DHT22;9834;48.076;11.878;2024-01-25T09:38:18;8.80;99.90
19397;DHT22;9834;48.076;11.878;2024-01-25T09:40:45;8.70;99.90
19397;DHT22;9834;48.076;11.878;2024-01-25T09:43:14;8.80;99.90
19397;DHT22;9834;48.076;11.878;2024-01-25T09:45:53;8.80;99.90
19397;DHT22;9834;48.076;11.878;2024-01-25T09:48:24;8.90;99.90
19397;DHT22;9834;48.076;11.878;2024-01-25T09:50:55;8.80;99.90
19397;DHT22;9834;48.076;11.878;2024-01-25T09:53:33;8.70;99.90
19397;DHT22;9834;48.076;11.878;2024-01-25T09:56:07;8.90;99.90
19397;DHT22;9834;48.076;11.878;2024-01-25T09:58:39;8.80;99.90
19397;DHT22;9834;48.076;11.878;2024-01-25T10:01:14;8.80;99.90
19397;DHT22;9834;48.076;11.878;2024-01-25T10:03:45;8.70;99.90
19397;DHT22;9834;48.076;11.878;2024-01-25T10:06:23;8.70;99.90
19397;DHT22;9834;48.076;11.878;2024-01-25T10:08:52;8.80;99.90
19397;DHT22;9834;48.076;11.878;2024-01-25T10:11:23;8.70;99.90
19397;DHT22;9834;48.076;11.878;2024-01-25T10:13:51;8.50;99.90
19397;DHT22;9834;48.076;11.878;2024-01-25T10:16:31;8.50;99.90
19397;DHT22;9834;48.076;11.878;2024-01-25T10:19:02;8.50;99.90
19397;DHT22;9834;48.076;11.878;2024-01-25T10:21:40;8.60;99.90
19397;DHT22;9834;48.076;11.878;2024-01-25T10:24:08;8.60;99.90
19397;DHT22;9834;48.076;11.878;2024-01-25T10:26:43;8.60;99.60
19397;DHT22;9834;48.076;11.878;2024-01-25T10:29:11;8.60;98.30
19397;DHT22;9834;48.076;11.878;2024-01-25T10:31:39;8.70;97.90
19397;DHT22;9834;48.076;11.878;2024-01-25T10:34:09;9.00;97.00
19397;DHT22;9834;48.076;11.878;2024-01-25T10:36:43;9.20;95.70
19397;DHT22;9834;48.076;11.878;2024-01-25T10:39:16;9.60;96.10
19397;DHT22;9834;48.076;11.878;2024-01-25T10:41:46;9.70;94.60
19397;DHT22;9834;48.076;11.878;2024-01-25T10:44:16;9.70;95.00
19397;DHT22;9834;48.076;11.878;2024-01-25T10:46:47;9.70;94.10
19397;DHT22;9834;48.076;11.878;2024-01-25T10:49:15;9.60;94.40
19397;DHT22;9834;48.076;11.878;2024-01-25T10:51:46;9.60;93.70
19397;DHT22;9834;48.076;11.878;2024-01-25T10:54:17;9.80;93.30
19397;DHT22;9834;48.076;11.878;2024-01-25T10:56:46;9.70;92.90
19397;DHT22;9834;48.076;11.878;2024-01-25T10:59:16;9.80;94.00
19397;DHT22;9834;48.076;11.878;2024-01-25T11:01:45;9.80;92.80
19397;DHT22;9834;48.076;11.878;2024-01-25T11:04:17;9.60;91.00
19397;DHT22;9834;48.076;11.878;2024-01-25T11:06:46;9.40;91.10
19397;DHT22;9834;48.076;11.878;2024-01-25T11:09:17;9.50;91.90
19397;DHT22;9834;48.076;11.878;2024-01-25T11:11:49;9.40;91.10
19397;DHT22;9834;48.076;11.878;2024-01-25T11:14:19;9.30;91.30
19397;DHT22;9834;48.076;11.878;2024-01-25T11:16:46;9.40;91.00
19397;DHT22;9834;48.076;11.878;2024-01-25T11:19:21;9.60;91.50
19397;DHT22;9834;48.076;11.878;2024-01-25T11:21:53;9.50;90.70
19397;DHT22;9834;48.076;11.878;2024-01-25T11:24:23;9.50;91.40
19397;DHT22;9834;48.076;11.878;2024-01-25T11:26:54;9.70;91.00
19397;DHT22;9834;48.076;11.878;2024-01-25T11:29:24;9.70;90.90
19397;DHT22;9834;48.076;11.878;2024-01-25T11:31:53;9.40;91.30
19397;DHT22;9834;48.076;11.878;2024-01-25T11:34:20;9.30;92.50
19397;DHT22;9834;48.076;11.878;2024-01-25T11:36:49;9.20;92.50
19397;DHT22;9834;48.076;11.878;2024-01-25T11:39:25;9.30;93.10
19397;DHT22;9834;48.076;11.878;2024-01-25T11:41:59;9.50;92.80
19397;DHT22;9834;48.076;11.878;2024-01-25T11:44:31;9.80;92.30
19397;DHT22;9834;48.076;11.878;2024-01-25T11:47:02;10.30;91.90
19397;DHT22;9834;48.076;11.878;2024-01-25T11:49:31;10.60;90.80
19397;DHT22;9834;48.076;11.878;2024-01-25T11:52:03;10.60;90.70
19397;DHT22;9834;48.076;11.878;2024-01-25T11:54:31;10.70;89.20
19397;DHT22;9834;48.076;11.878;2024-01-25T11:56:59;10.90;89.40
19397;DHT22;9834;48.076;11.878;2024-01-25T11:59:28;10.90;88.40
19397;DHT22;9834;48.076;11.878;2024-01-25T12:01:56;10.80;86.40
19397;DHT22;9834;48.076;11.878;2024-01-25T12:04:29;10.70;86.40
19397;DHT22;9834;48.076;11.878;2024-01-25T12:07:04;10.50;87.00
19397;DHT22;9834;48.076;11.878;2024-01-25T12:09:32;10.30;85.60
19397;DHT22;9834;48.076;11.878;2024-01-25T12:12:03;10.10;87.20
19397;DHT22;9834;48.076;11.878;2024-01-25T12:14:31;10.00;87.40
19397;DHT22;9834;48.076;11.878;2024-01-25T12:16:58;10.10;88.30
19397;DHT22;9834;48.076;11.878;2024-01-25T12:19:26;10.40;86.50
19397;DHT22;9834;48.076;11.878;2024-01-25T12:21:56;11.00;84.00
19397;DHT22;9834;48.076;11.878;2024-01-25T12:24:25;11.60;81.10
19397;DHT22;9834;48.076;11.878;2024-01-25T12:26:52;11.80;79.40
19397;DHT22;9834;48.076;11.878;2024-01-25T12:29:21;11.90;77.50
19397;DHT22;9834;48.076;11.878;2024-01-25T12:31:49;12.30;75.40
19397;DHT22;9834;48.076;11.878;2024-01-25T12:34:19;12.50;72.40
19397;DHT22;9834;48.076;11.878;2024-01-25T12:36:46;11.90;73.60
19397;DHT22;9834;48.076;11.878;2024-01-25T12:39:14;11.90;74.20
19397;DHT22;9834;48.076;11.878;2024-01-25T12:41:44;11.70;75.00
19397;DHT22;9834;48.076;11.878;2024-01-25T12:44:11;11.50;74.80
19397;DHT22;9834;48.076;11.878;2024-01-25T12:46:39;11.50;75.50
19397;DHT22;9834;48.076;11.878;2024-01-25T12:49:09;11.80;73.90
19397;DHT22;9834;48.076;11.878;2024-01-25T12:51:40;12.00;73.80
19397;DHT22;9834;48.076;11.878;2024-01-25T12:54:07;11.80;73.00
19397;DHT22;9834;48.076;11.878;2024-01-25T12:56:35;11.60;72.90
19397;DHT22;9834;48.076;11.878;2024-01-25T12:59:04;11.60;74.30
19397;DHT22;9834;48.076;11.878;2024-01-25T13:01:33;11.70;73.50
19397;DHT22;9834;48.076;11.878;2024-01-25T13:04:01;12.00;72.30
19397;DHT22;9834;48.076;11.878;2024-01-25T13:06:28;12.30;72.00
19397;DHT22;9834;48.076;11.878;2024-01-25T13:08:58;12.80;69.70
19397;DHT22;9834;48.076;11.878;2024-01-25T13:11:29;13.20;69.00
19397;DHT22;9834;48.076;11.878;2024-01-25T13:13:57;12.90;68.30
19397;DHT22;9834;48.076;11.878;2024-01-25T13:16:29;12.90;67.70
19397;DHT22;9834;48.076;11.878;2024-01-25T13:18:56;13.00;66.90
19397;DHT22;9834;48.076;11.878;2024-01-25T13:21:26;13.20;66.50
19397;DHT22;9834;48.076;11.878;2024-01-25T13:23:54;13.20;66.00
19397;DHT22;9834;48.076;11.878;2024-01-25T13:26:24;13.10;65.80
19397;DHT22;9834;48.076;11.878;2024-01-25T13:28:54;12.70;65.50
19397;DHT22;9834;48.076;11.878;2024-01-25T13:31:21;12.40;67.00
19397;DHT22;9834;48.076;11.878;2024-01-25T13:33:53;12.20;68.30
19397;DHT22;9834;48.076;11.878;2024-01-25T13:36:23;12.20;68.80
19397;DHT22;9834;48.076;11.878;2024-01-25T13:39:05;12.20;69.10
19397;DHT22;9834;48.076;11.878;2024-01-25T13:41:44;12.50;68.00
19397;DHT22;9834;48.076;11.878;2024-01-25T13:44:14;12.70;67.50
19397;DHT22;9834;48.076;11.878;2024-01-25T13:46:49;12.80;68.40
19397;DHT22;9834;48.076;11.878;2024-01-25T13:49:21;12.40;67.50
19397;DHT22;9834;48.076;11.878;2024-01-25T13:51:49;12.00;68.60
19397;DHT22;9834;48.076;11.878;2024-01-25T13:54:16;11.90;70.10
19397;DHT22;9834;48.076;11.878;2024-01-25T13:56:44;12.30;69.20
19397;DHT22;9834;48.076;11.878;2024-01-25T13:59:11;12.80;68.00
19397;DHT22;9834;48.076;11.878;2024-01-25T14:01:39;13.70;64.20
19397;DHT22;9834;48.076;11.878;2024-01-25T14:04:09;13.70;62.70
19397;DHT22;9834;48.076;11.878;2024-01-25T14:06:41;13.90;63.10
19397;DHT22;9834;48.076;11.878;2024-01-25T14:09:16;13.80;62.70
19397;DHT22;9834;48.076;11.878;2024-01-25T14:11:47;13.00;64.40
19397;DHT22;9834;48.076;11.878;2024-01-25T14:14:14;12.60;65.80
19397;DHT22;9834;48.076;11.878;2024-01-25T14:16:43;12.20;67.00
19397;DHT22;9834;48.076;11.878;2024-01-25T14:19:11;11.90;69.20
19397;DHT22;9834;48.076;11.878;2024-01-25T14:21:43;11.50;70.40
19397;DHT22;9834;48.076;11.878;2024-01-25T14:24:10;10.90;72.40
19397;DHT22;9834;48.076;11.878;2024-01-25T14:26:40;10.70;73.70
19397;DHT22;9834;48.076;11.878;2024-01-25T14:29:10;10.40;74.80
19397;DHT22;9834;48.076;11.878;2024-01-25T14:31:38;10.20;75.90
19397;DHT22;9834;48.076;11.878;2024-01-25T14:34:11;10.20;77.20
19397;DHT22;9834;48.076;11.878;2024-01-25T14:36:38;10.30;77.40
19397;DHT22;9834;48.076;11.878;2024-01-25T14:39:07;10.20;77.40
19397;DHT22;9834;48.076;11.878;2024-01-25T14:41:44;10.30;78.00
19397;DHT22;9834;48.076;11.878;2024-01-25T14:44:12;10.50;77.90
19397;DHT22;9834;48.076;11.878;2024-01-25T14:46:41;10.40;78.50
19397;DHT22;9834;48.076;11.878;2024-01-25T14:49:09;10.30;78.70
19397;DHT22;9834;48.076;11.878;2024-01-25T14:51:36;10.10;80.00
19397;DHT22;9834;48.076;11.878;2024-01-25T14:54:04;10.00;79.90
19397;DHT22;9834;48.076;11.878;2024-01-25T14:56:33;9.90;80.80
19397;DHT22;9834;48.076;11.878;2024-01-25T14:59:00;9.90;82.30
19397;DHT22;9834;48.076;11.878;2024-01-25T15:01:33;9.90;84.20
19397;DHT22;9834;48.076;11.878;2024-01-25T15:04:01;9.80;83.20
19397;DHT22;9834;48.076;11.878;2024-01-25T15:06:28;9.80;83.40
19397;DHT22;9834;48.076;11.878;2024-01-25T15:08:56;9.80;84.70
19397;DHT22;9834;48.076;11.878;2024-01-25T15:11:24;9.80;85.30
19397;DHT22;9834;48.076;11.878;2024-01-25T15:13:52;9.70;85.50
19397;DHT22;9834;48.076;11.878;2024-01-25T15:16:20;9.60;86.40
19397;DHT22;9834;48.076;11.878;2024-01-25T15:18:48;9.50;87.30
19397;DHT22;9834;48.076;11.878;2024-01-25T15:21:20;9.40;88.60
19397;DHT22;9834;48.076;11.878;2024-01-25T15:23:51;9.30;89.60
19397;DHT22;9834;48.076;11.878;2024-01-25T15:26:24;9.20;90.00
19397;DHT22;9834;48.076;11.878;2024-01-25T15:28:53;9.10;90.10
19397;DHT22;9834;48.076;11.878;2024-01-25T15:31:24;9.00;90.90
19397;DHT22;9834;48.076;11.878;2024-01-25T15:33:52;8.90;91.80
19397;DHT22;9834;48.076;11.878;2024-01-25T15:36:19;8.70;93.20
19397;DHT22;9834;48.076;11.878;2024-01-25T15:38:47;8.60;94.90
19397;DHT22;9834;48.076;11.878;2024-01-25T15:41:15;8.40;96.70
19397;DHT22;9834;48.076;11.878;2024-01-25T15:43:47;8.20;98.30
19397;DHT22;9834;48.076;11.878;2024-01-25T15:46:23;8.00;99.90
19397;DHT22;9834;48.076;11.878;2024-01-25T15:48:55;7.80;99.90
19397;DHT22;9834;48.076;11.878;2024-01-25T15:51:27;7.60;99.90
19397;DHT22;9834;48.076;11.878;2024-01-25T15:53:54;7.40;99.90
19397;DHT22;9834;48.076;11.878;2024-01-25T15:56:22;7.30;99.90
19397;DHT22;9834;48.076;11.878;2024-01-25T15:58:49;7.10;99.90
19397;DHT22;9834;48.076;11.878;2024-01-25T16:01:20;7.00;99.90
19397;DHT22;9834;48.076;11.878;2024-01-25T16:03:47;7.00;99.90
19397;DHT22;9834;48.076;11.878;2024-01-25T16:06:17;6.90;99.90
19397;DHT22;9834;48.076;11.878;2024-01-25T16:08:47;6.90;99.90
19397;DHT22;9834;48.076;11.878;2024-01-25T16:11:15;6.90;99.90
19397;DHT22;9834;48.076;11.878;2024-01-25T16:13:42;6.80;99.90
19397;DHT22;9834;48.076;11.878;2024-01-25T16:16:13;6.80;99.90
19397;DHT22;9834;48.076;11.878;2024-01-25T16:18:44;6.80;99.90